createdAt,value
2017-08-28T00:00:53.690Z,0
2017-08-28T00:01:53.694Z,0
2017-08-28T00:02:53.709Z,0
2017-08-28T00:03:54.040Z,0
2017-08-28T00:04:54.517Z,0
2017-08-28T00:05:53.716Z,0
2017-08-28T00:06:54.029Z,0
2017-08-28T00:07:53.719Z,0
2017-08-28T00:08:52.877Z,0
2017-08-28T00:09:54.077Z,0
2017-08-28T00:10:54.057Z,0
2017-08-28T00:11:53.735Z,0
2017-08-28T00:12:54.047Z,0
2017-08-28T00:13:54.060Z,0
2017-08-28T00:14:53.577Z,0
2017-08-28T00:15:53.497Z,0
2017-08-28T00:16:53.133Z,0
2017-08-28T00:17:53.449Z,0
2017-08-28T00:18:53.159Z,0
2017-08-28T00:19:52.860Z,0
2017-08-28T00:20:53.544Z,0
2017-08-28T00:21:54.142Z,0
2017-08-28T00:22:53.474Z,0
2017-08-28T00:23:53.793Z,0
2017-08-28T00:24:53.862Z,0
2017-08-28T00:25:53.150Z,0
2017-08-28T00:26:53.471Z,0
2017-08-28T00:27:53.156Z,0
2017-08-28T00:28:53.789Z,0
2017-08-28T00:29:53.841Z,0
2017-08-28T00:30:53.480Z,0
2017-08-28T00:31:53.784Z,0
2017-08-28T00:32:53.178Z,0
2017-08-28T00:33:53.182Z,0
2017-08-28T00:34:53.525Z,0
2017-08-28T00:35:53.220Z,0
2017-08-28T00:36:53.804Z,0
2017-08-28T00:37:53.813Z,0
2017-08-28T00:38:53.184Z,0
2017-08-28T00:39:53.823Z,0
2017-08-28T00:40:53.825Z,0
2017-08-28T00:41:53.815Z,0
2017-08-28T00:42:54.147Z,0
2017-08-28T00:43:53.201Z,0
2017-08-28T00:44:53.817Z,0
2017-08-28T00:45:55.319Z,0
2017-08-28T00:46:53.836Z,0
2017-08-28T00:47:53.210Z,0
2017-08-28T00:48:53.523Z,0
2017-08-28T00:49:53.536Z,0
2017-08-28T00:50:53.525Z,0
2017-08-28T00:51:54.167Z,0
2017-08-28T00:52:53.876Z,0
2017-08-28T00:53:53.557Z,0
2017-08-28T00:54:53.874Z,0
2017-08-28T00:55:54.187Z,0
2017-08-28T00:56:53.249Z,0
2017-08-28T00:57:53.867Z,0
2017-08-28T00:58:53.868Z,0
2017-08-28T00:59:54.196Z,0
2017-08-28T01:00:56.969Z,0
2017-08-28T01:01:53.562Z,0
2017-08-28T01:02:53.868Z,0
2017-08-28T01:03:53.252Z,0
2017-08-28T01:04:53.888Z,0
2017-08-28T01:05:53.568Z,0
2017-08-28T01:06:54.190Z,0
2017-08-28T01:07:54.196Z,0
2017-08-28T01:08:53.271Z,0
2017-08-28T01:09:54.207Z,0
2017-08-28T01:10:53.907Z,0
2017-08-28T01:11:53.893Z,0
2017-08-28T01:12:53.596Z,0
2017-08-28T01:13:53.596Z,0
2017-08-28T01:14:53.611Z,0
2017-08-28T01:15:57.637Z,0
2017-08-28T01:16:53.604Z,0
2017-08-28T01:17:54.241Z,0
2017-08-28T01:18:54.224Z,0
2017-08-28T01:19:53.959Z,0
2017-08-28T01:20:54.256Z,0
2017-08-28T01:21:53.623Z,0
2017-08-28T01:22:53.623Z,0
2017-08-28T01:23:54.298Z,0
2017-08-28T01:24:53.959Z,0
2017-08-28T01:25:53.961Z,0
2017-08-28T01:26:53.626Z,0
2017-08-28T01:27:53.950Z,0
2017-08-28T01:28:54.272Z,0
2017-08-28T01:29:53.647Z,0
2017-08-28T01:30:53.967Z,0
2017-08-28T01:31:53.973Z,0
2017-08-28T01:32:53.975Z,0
2017-08-28T01:33:53.347Z,0
2017-08-28T01:34:54.297Z,0
2017-08-28T01:35:53.675Z,0
2017-08-28T01:36:54.287Z,0
2017-08-28T01:37:53.660Z,0
2017-08-28T01:38:54.277Z,0
2017-08-28T01:39:54.328Z,0
2017-08-28T01:40:53.679Z,0
2017-08-28T01:41:53.979Z,0
2017-08-28T01:42:54.003Z,0
2017-08-28T01:43:53.674Z,0
2017-08-28T01:44:54.327Z,0
2017-08-28T01:45:53.689Z,0
2017-08-28T01:46:55.451Z,0
2017-08-28T01:47:54.032Z,0
2017-08-28T01:48:54.327Z,0
2017-08-28T01:49:54.335Z,0
2017-08-28T01:50:54.033Z,0
2017-08-28T01:51:53.712Z,0
2017-08-28T01:52:53.411Z,0
2017-08-28T01:53:54.327Z,0
2017-08-28T01:54:54.352Z,0
2017-08-28T01:55:53.744Z,0
2017-08-28T01:56:54.032Z,0
2017-08-28T01:57:54.064Z,0
2017-08-28T01:58:54.327Z,0
2017-08-28T01:59:53.111Z,0
2017-08-28T02:00:53.716Z,0
2017-08-28T02:01:54.093Z,0
2017-08-28T02:02:53.726Z,0
2017-08-28T02:03:54.343Z,0
2017-08-28T02:04:53.747Z,0
2017-08-28T02:05:53.424Z,0
2017-08-28T02:06:54.055Z,0
2017-08-28T02:07:53.737Z,0
2017-08-28T02:08:53.733Z,0
2017-08-28T02:09:53.749Z,0
2017-08-28T02:10:53.735Z,0
2017-08-28T02:11:54.083Z,0
2017-08-28T02:12:54.075Z,0
2017-08-28T02:13:53.762Z,0
2017-08-28T02:14:53.461Z,0
2017-08-28T02:15:54.099Z,0
2017-08-28T02:16:54.376Z,0
2017-08-28T02:17:53.762Z,0
2017-08-28T02:18:53.768Z,0
2017-08-28T02:19:54.399Z,0
2017-08-28T02:20:53.763Z,0
2017-08-28T02:21:54.405Z,0
2017-08-28T02:22:54.111Z,0
2017-08-28T02:23:53.772Z,0
2017-08-28T02:24:53.793Z,0
2017-08-28T02:25:54.110Z,0
2017-08-28T02:26:53.778Z,0
2017-08-28T02:27:55.702Z,0
2017-08-28T02:28:53.476Z,0
2017-08-28T02:29:53.485Z,0
2017-08-28T02:30:54.425Z,0
2017-08-28T02:31:54.138Z,0
2017-08-28T02:32:54.417Z,0
2017-08-28T02:33:54.432Z,0
2017-08-28T02:34:54.126Z,0
2017-08-28T02:35:54.143Z,0
2017-08-28T02:36:54.145Z,0
2017-08-28T02:37:53.497Z,0
2017-08-28T02:38:54.127Z,0
2017-08-28T02:39:53.542Z,0
2017-08-28T02:40:53.522Z,0
2017-08-28T02:41:53.824Z,0
2017-08-28T02:42:53.212Z,0
2017-08-28T02:43:53.832Z,0
2017-08-28T02:44:54.169Z,0
2017-08-28T02:45:54.159Z,0
2017-08-28T02:46:54.646Z,0
2017-08-28T02:47:53.833Z,0
2017-08-28T02:48:53.841Z,0
2017-08-28T02:49:53.872Z,0
2017-08-28T02:50:54.484Z,0
2017-08-28T02:51:54.169Z,0
2017-08-28T02:52:54.183Z,0
2017-08-28T02:53:53.551Z,0
2017-08-28T02:54:54.484Z,0
2017-08-28T02:55:54.199Z,0
2017-08-28T02:56:53.856Z,0
2017-08-28T02:57:54.486Z,0
2017-08-28T02:58:54.193Z,0
2017-08-28T02:59:54.480Z,0
2017-08-28T03:00:54.213Z,0
2017-08-28T03:01:59.244Z,0
2017-08-28T03:02:54.498Z,0
2017-08-28T03:03:54.490Z,0
2017-08-28T03:04:54.197Z,0
2017-08-28T03:05:53.875Z,0
2017-08-28T03:06:53.922Z,0
2017-08-28T03:07:53.899Z,0
2017-08-28T03:08:53.898Z,0
2017-08-28T03:09:53.907Z,0
2017-08-28T03:10:54.202Z,0
2017-08-28T03:11:54.510Z,0
2017-08-28T03:12:54.515Z,0
2017-08-28T03:13:53.893Z,0
2017-08-28T03:14:53.598Z,0
2017-08-28T03:15:53.918Z,0
2017-08-28T03:16:56.337Z,0
2017-08-28T03:17:53.604Z,0
2017-08-28T03:18:53.922Z,0
2017-08-28T03:19:53.920Z,0
2017-08-28T03:20:54.527Z,0
2017-08-28T03:21:53.927Z,0
2017-08-28T03:22:53.291Z,0
2017-08-28T03:23:54.246Z,0
2017-08-28T03:24:54.549Z,0
2017-08-28T03:25:54.557Z,0
2017-08-28T03:26:54.248Z,0
2017-08-28T03:27:53.616Z,0
2017-08-28T03:28:54.548Z,0
2017-08-28T03:29:54.249Z,0
2017-08-28T03:30:54.252Z,0
2017-08-28T03:31:53.951Z,0
2017-08-28T03:32:53.632Z,0
2017-08-28T03:33:54.258Z,0
2017-08-28T03:34:53.645Z,0
2017-08-28T03:35:54.264Z,0
2017-08-28T03:36:54.562Z,0
2017-08-28T03:37:54.260Z,0
2017-08-28T03:38:54.266Z,0
2017-08-28T03:39:53.663Z,0
2017-08-28T03:40:54.573Z,0
2017-08-28T03:41:53.662Z,0
2017-08-28T03:42:54.582Z,0
2017-08-28T03:43:54.382Z,0
2017-08-28T03:44:53.993Z,0
2017-08-28T03:45:54.000Z,0
2017-08-28T03:46:54.280Z,0
2017-08-28T03:47:53.992Z,0
2017-08-28T03:48:54.295Z,0
2017-08-28T03:49:54.296Z,0
2017-08-28T03:50:54.608Z,0
2017-08-28T03:51:53.676Z,0
2017-08-28T03:52:54.608Z,0
2017-08-28T03:53:54.004Z,0
2017-08-28T03:54:54.317Z,0
2017-08-28T03:55:54.303Z,0
2017-08-28T03:56:54.611Z,0
2017-08-28T03:57:54.611Z,0
2017-08-28T03:58:53.692Z,0
2017-08-28T03:59:54.030Z,0
2017-08-28T04:00:54.011Z,0
2017-08-28T04:01:54.317Z,0
2017-08-28T04:02:54.026Z,0
2017-08-28T04:03:54.636Z,0
2017-08-28T04:04:54.326Z,0
2017-08-28T04:05:54.636Z,0
2017-08-28T04:06:54.646Z,0
2017-08-28T04:07:54.031Z,0
2017-08-28T04:08:54.054Z,0
2017-08-28T04:09:54.034Z,0
2017-08-28T04:10:54.662Z,0
2017-08-28T04:11:54.334Z,0
2017-08-28T04:12:54.335Z,0
2017-08-28T04:13:54.682Z,0
2017-08-28T04:14:54.050Z,0
2017-08-28T04:15:54.654Z,0
2017-08-28T04:16:54.660Z,0
2017-08-28T04:17:55.957Z,0
2017-08-28T04:18:54.352Z,0
2017-08-28T04:19:54.354Z,0
2017-08-28T04:20:54.355Z,0
2017-08-28T04:21:54.676Z,0
2017-08-28T04:22:54.360Z,0
2017-08-28T04:23:54.359Z,5
2017-08-28T04:24:54.078Z,5
2017-08-28T04:25:54.379Z,5
2017-08-28T04:26:54.086Z,5
2017-08-28T04:27:54.687Z,5
2017-08-28T04:28:54.384Z,5
2017-08-28T04:29:54.382Z,5
2017-08-28T04:30:54.088Z,5
2017-08-28T04:31:54.701Z,5
2017-08-28T04:32:54.746Z,5
2017-08-28T04:33:54.392Z,5
2017-08-28T04:34:54.116Z,5
2017-08-28T04:35:54.705Z,5
2017-08-28T04:36:54.395Z,10
2017-08-28T04:37:54.397Z,10
2017-08-28T04:38:54.711Z,10
2017-08-28T04:39:54.425Z,10
2017-08-28T04:40:54.112Z,10
2017-08-28T04:41:54.096Z,15
2017-08-28T04:42:54.407Z,15
2017-08-28T04:43:54.096Z,15
2017-08-28T04:44:53.799Z,15
2017-08-28T04:45:54.099Z,15
2017-08-28T04:46:54.415Z,20
2017-08-28T04:47:58.221Z,20
2017-08-28T04:48:54.728Z,20
2017-08-28T04:49:54.419Z,25
2017-08-28T04:50:54.125Z,25
2017-08-28T04:51:54.728Z,25
2017-08-28T04:52:54.441Z,30
2017-08-28T04:53:54.420Z,30
2017-08-28T04:54:54.455Z,35
2017-08-28T04:55:54.750Z,35
2017-08-28T04:56:54.753Z,35
2017-08-28T04:57:54.445Z,40
2017-08-28T04:58:54.168Z,40
2017-08-28T04:59:54.163Z,40
2017-08-28T05:00:54.459Z,40
2017-08-28T05:01:54.450Z,40
2017-08-28T05:02:54.163Z,45
2017-08-28T05:03:54.448Z,50
2017-08-28T05:04:54.474Z,50
2017-08-28T05:05:54.448Z,50
2017-08-28T05:06:54.454Z,50
2017-08-28T05:07:54.460Z,55
2017-08-28T05:08:54.464Z,55
2017-08-28T05:09:54.479Z,60
2017-08-28T05:10:54.461Z,60
2017-08-28T05:11:54.473Z,65
2017-08-28T05:12:54.479Z,65
2017-08-28T05:13:54.477Z,65
2017-08-28T05:14:54.179Z,65
2017-08-28T05:15:53.853Z,70
2017-08-28T05:16:54.811Z,65
2017-08-28T05:17:57.741Z,70
2017-08-28T05:18:54.789Z,70
2017-08-28T05:19:54.819Z,70
2017-08-28T05:20:54.197Z,70
2017-08-28T05:21:54.508Z,75
2017-08-28T05:22:54.513Z,80
2017-08-28T05:23:54.188Z,80
2017-08-28T05:24:54.818Z,80
2017-08-28T05:25:54.507Z,80
2017-08-28T05:26:54.221Z,85
2017-08-28T05:27:53.583Z,85
2017-08-28T05:28:54.235Z,90
2017-08-28T05:29:54.527Z,90
2017-08-28T05:30:54.532Z,95
2017-08-28T05:31:54.557Z,90
2017-08-28T05:32:54.545Z,95
2017-08-28T05:33:54.245Z,95
2017-08-28T05:34:54.538Z,95
2017-08-28T05:35:54.542Z,100
2017-08-28T05:36:53.923Z,105
2017-08-28T05:37:54.857Z,105
2017-08-28T05:38:54.543Z,110
2017-08-28T05:39:54.563Z,110
2017-08-28T05:40:54.559Z,115
2017-08-28T05:41:53.641Z,115
2017-08-28T05:42:53.945Z,120
2017-08-28T05:43:54.293Z,120
2017-08-28T05:44:54.882Z,125
2017-08-28T05:45:54.883Z,125
2017-08-28T05:46:54.582Z,130
2017-08-28T05:47:54.627Z,125
2017-08-28T05:48:55.384Z,125
2017-08-28T05:49:54.293Z,135
2017-08-28T05:50:54.908Z,130
2017-08-28T05:51:54.607Z,135
2017-08-28T05:52:54.611Z,130
2017-08-28T05:53:54.310Z,135
2017-08-28T05:54:54.306Z,125
2017-08-28T05:55:54.622Z,125
2017-08-28T05:56:54.967Z,120
2017-08-28T05:57:54.622Z,120
2017-08-28T05:58:54.646Z,125
2017-08-28T05:59:54.947Z,125
2017-08-28T06:00:54.327Z,125
2017-08-28T06:01:54.953Z,125
2017-08-28T06:02:54.650Z,130
2017-08-28T06:03:54.665Z,125
2017-08-28T06:04:54.671Z,130
2017-08-28T06:05:54.966Z,130
2017-08-28T06:06:54.351Z,130
2017-08-28T06:07:54.669Z,130
2017-08-28T06:08:54.359Z,130
2017-08-28T06:09:54.386Z,130
2017-08-28T06:10:54.688Z,130
2017-08-28T06:11:54.683Z,125
2017-08-28T06:12:54.376Z,130
2017-08-28T06:13:54.696Z,130
2017-08-28T06:14:54.711Z,125
2017-08-28T06:15:54.692Z,130
2017-08-28T06:16:54.716Z,140
2017-08-28T06:17:54.716Z,145
2017-08-28T06:18:55.809Z,145
2017-08-28T06:19:54.748Z,145
2017-08-28T06:20:54.411Z,150
2017-08-28T06:21:55.038Z,150
2017-08-28T06:22:54.120Z,160
2017-08-28T06:23:54.420Z,160
2017-08-28T06:24:55.046Z,160
2017-08-28T06:25:54.741Z,165
2017-08-28T06:26:54.750Z,170
2017-08-28T06:27:54.141Z,185
2017-08-28T06:28:54.751Z,185
2017-08-28T06:29:54.754Z,190
2017-08-28T06:30:54.757Z,195
2017-08-28T06:31:54.453Z,195
2017-08-28T06:32:54.761Z,200
2017-08-28T06:33:56.415Z,200
2017-08-28T06:34:54.778Z,200
2017-08-28T06:35:54.780Z,205
2017-08-28T06:36:54.791Z,205
2017-08-28T06:37:54.487Z,210
2017-08-28T06:38:54.797Z,210
2017-08-28T06:39:55.121Z,210
2017-08-28T06:40:55.114Z,215
2017-08-28T06:41:55.120Z,215
2017-08-28T06:42:54.824Z,220
2017-08-28T06:43:54.854Z,220
2017-08-28T06:44:55.176Z,220
2017-08-28T06:45:55.158Z,225
2017-08-28T06:46:55.158Z,225
2017-08-28T06:47:54.848Z,235
2017-08-28T06:48:55.456Z,230
2017-08-28T06:49:54.851Z,240
2017-08-28T06:50:54.867Z,240
2017-08-28T06:51:54.864Z,240
2017-08-28T06:52:54.869Z,240
2017-08-28T06:53:54.886Z,240
2017-08-28T06:54:55.207Z,245
2017-08-28T06:55:54.891Z,245
2017-08-28T06:56:54.909Z,250
2017-08-28T06:57:54.903Z,250
2017-08-28T06:58:54.936Z,250
2017-08-28T06:59:54.622Z,250
2017-08-28T07:00:54.309Z,250
2017-08-28T07:01:54.320Z,255
2017-08-28T07:02:55.244Z,260
2017-08-28T07:03:54.939Z,265
2017-08-28T07:04:54.641Z,255
2017-08-28T07:05:54.953Z,260
2017-08-28T07:06:54.655Z,260
2017-08-28T07:07:54.965Z,260
2017-08-28T07:08:54.977Z,265
2017-08-28T07:09:54.978Z,265
2017-08-28T07:10:54.988Z,265
2017-08-28T07:11:54.997Z,270
2017-08-28T07:12:55.312Z,270
2017-08-28T07:13:54.747Z,270
2017-08-28T07:14:55.011Z,270
2017-08-28T07:15:54.722Z,280
2017-08-28T07:16:55.027Z,275
2017-08-28T07:17:55.042Z,275
2017-08-28T07:18:54.741Z,265
2017-08-28T07:19:56.946Z,255
2017-08-28T07:20:54.133Z,240
2017-08-28T07:21:55.065Z,240
2017-08-28T07:22:55.375Z,240
2017-08-28T07:23:54.772Z,240
2017-08-28T07:24:55.391Z,235
2017-08-28T07:25:55.400Z,235
2017-08-28T07:26:54.784Z,240
2017-08-28T07:27:55.102Z,235
2017-08-28T07:28:55.112Z,235
2017-08-28T07:29:55.131Z,235
2017-08-28T07:30:55.441Z,240
2017-08-28T07:31:55.446Z,250
2017-08-28T07:32:55.136Z,265
2017-08-28T07:33:54.527Z,270
2017-08-28T07:34:55.148Z,275
2017-08-28T07:35:55.459Z,275
2017-08-28T07:36:55.460Z,280
2017-08-28T07:37:55.468Z,275
2017-08-28T07:38:55.493Z,275
2017-08-28T07:39:54.883Z,275
2017-08-28T07:40:55.187Z,275
2017-08-28T07:41:54.885Z,270
2017-08-28T07:42:55.201Z,270
2017-08-28T07:43:55.509Z,270
2017-08-28T07:44:54.909Z,255
2017-08-28T07:45:54.311Z,250
2017-08-28T07:46:55.235Z,250
2017-08-28T07:47:55.243Z,260
2017-08-28T07:48:55.252Z,255
2017-08-28T07:49:55.091Z,265
2017-08-28T07:50:54.945Z,270
2017-08-28T07:51:55.580Z,275
2017-08-28T07:52:55.571Z,275
2017-08-28T07:53:54.964Z,280
2017-08-28T07:54:55.284Z,280
2017-08-28T07:55:54.968Z,280
2017-08-28T07:56:55.285Z,280
2017-08-28T07:57:54.994Z,280
2017-08-28T07:58:55.306Z,280
2017-08-28T07:59:55.624Z,285
2017-08-28T08:00:55.625Z,285
2017-08-28T08:01:55.010Z,285
2017-08-28T08:02:55.348Z,290
2017-08-28T08:03:55.036Z,290
2017-08-28T08:04:56.784Z,270
2017-08-28T08:05:54.735Z,280
2017-08-28T08:06:55.058Z,280
2017-08-28T08:07:55.680Z,285
2017-08-28T08:08:55.374Z,285
2017-08-28T08:09:55.382Z,285
2017-08-28T08:10:55.387Z,285
2017-08-28T08:11:55.706Z,285
2017-08-28T08:12:55.099Z,285
2017-08-28T08:13:55.415Z,285
2017-08-28T08:14:55.416Z,290
2017-08-28T08:15:55.124Z,285
2017-08-28T08:16:55.442Z,290
2017-08-28T08:17:55.159Z,290
2017-08-28T08:18:54.528Z,290
2017-08-28T08:19:54.524Z,300
2017-08-28T08:21:00.167Z,290
2017-08-28T08:21:55.460Z,290
2017-08-28T08:22:55.472Z,290
2017-08-28T08:23:54.562Z,290
2017-08-28T08:24:55.171Z,290
2017-08-28T08:25:55.537Z,290
2017-08-28T08:26:55.213Z,290
2017-08-28T08:27:55.209Z,290
2017-08-28T08:28:55.218Z,295
2017-08-28T08:29:55.218Z,290
2017-08-28T08:30:55.545Z,290
2017-08-28T08:31:55.858Z,295
2017-08-28T08:32:55.564Z,295
2017-08-28T08:33:55.252Z,295
2017-08-28T08:34:55.265Z,295
2017-08-28T08:35:55.283Z,295
2017-08-28T08:36:55.624Z,295
2017-08-28T08:37:55.597Z,295
2017-08-28T08:38:55.919Z,295
2017-08-28T08:39:55.293Z,295
2017-08-28T08:40:55.626Z,290
2017-08-28T08:41:55.938Z,290
2017-08-28T08:42:55.631Z,285
2017-08-28T08:43:55.651Z,285
2017-08-28T08:44:55.652Z,285
2017-08-28T08:45:55.958Z,285
2017-08-28T08:46:55.671Z,285
2017-08-28T08:47:55.977Z,280
2017-08-28T08:48:55.676Z,280
2017-08-28T08:49:55.686Z,280
2017-08-28T08:50:56.944Z,280
2017-08-28T08:51:55.997Z,280
2017-08-28T08:52:56.018Z,280
2017-08-28T08:53:55.394Z,280
2017-08-28T08:54:56.018Z,280
2017-08-28T08:55:55.103Z,280
2017-08-28T08:56:55.740Z,280
2017-08-28T08:57:55.430Z,280
2017-08-28T08:58:56.048Z,280
2017-08-28T08:59:55.762Z,285
2017-08-28T09:00:55.744Z,285
2017-08-28T09:01:55.745Z,280
2017-08-28T09:02:56.067Z,285
2017-08-28T09:03:55.762Z,285
2017-08-28T09:04:55.455Z,285
2017-08-28T09:05:55.775Z,285
2017-08-28T09:06:55.787Z,285
2017-08-28T09:07:55.478Z,285
2017-08-28T09:08:56.116Z,285
2017-08-28T09:09:55.808Z,285
2017-08-28T09:10:54.876Z,285
2017-08-28T09:11:56.919Z,285
2017-08-28T09:12:55.811Z,285
2017-08-28T09:13:55.825Z,285
2017-08-28T09:14:55.827Z,285
2017-08-28T09:15:56.144Z,285
2017-08-28T09:16:55.540Z,280
2017-08-28T09:17:55.537Z,285
2017-08-28T09:18:55.226Z,285
2017-08-28T09:19:55.541Z,285
2017-08-28T09:20:55.240Z,285
2017-08-28T09:21:56.986Z,280
2017-08-28T09:22:55.560Z,280
2017-08-28T09:23:55.587Z,280
2017-08-28T09:24:55.567Z,280
2017-08-28T09:25:55.577Z,285
2017-08-28T09:26:55.589Z,280
2017-08-28T09:27:55.593Z,280
2017-08-28T09:28:55.282Z,275
2017-08-28T09:29:55.018Z,275
2017-08-28T09:30:55.301Z,275
2017-08-28T09:31:55.935Z,275
2017-08-28T09:32:55.621Z,275
2017-08-28T09:33:55.946Z,275
2017-08-28T09:34:55.350Z,285
2017-08-28T09:35:55.942Z,285
2017-08-28T09:36:55.664Z,270
2017-08-28T09:37:55.021Z,270
2017-08-28T09:38:55.656Z,270
2017-08-28T09:39:55.656Z,270
2017-08-28T09:40:55.969Z,270
2017-08-28T09:41:55.360Z,265
2017-08-28T09:42:55.676Z,270
2017-08-28T09:43:56.314Z,270
2017-08-28T09:44:55.393Z,265
2017-08-28T09:45:56.020Z,265
2017-08-28T09:46:56.343Z,265
2017-08-28T09:47:55.390Z,260
2017-08-28T09:48:56.329Z,260
2017-08-28T09:49:55.404Z,260
2017-08-28T09:50:56.341Z,260
2017-08-28T09:51:57.312Z,260
2017-08-28T09:52:55.731Z,260
2017-08-28T09:53:55.735Z,265
2017-08-28T09:54:56.050Z,260
2017-08-28T09:55:55.757Z,260
2017-08-28T09:56:55.757Z,265
2017-08-28T09:57:55.446Z,260
2017-08-28T09:58:56.074Z,265
2017-08-28T09:59:55.456Z,260
2017-08-28T10:00:55.779Z,255
2017-08-28T10:01:55.779Z,255
2017-08-28T10:02:55.781Z,255
2017-08-28T10:03:55.811Z,255
2017-08-28T10:04:56.109Z,255
2017-08-28T10:05:55.180Z,255
2017-08-28T10:06:57.874Z,255
2017-08-28T10:07:56.116Z,255
2017-08-28T10:08:56.135Z,250
2017-08-28T10:09:55.818Z,250
2017-08-28T10:10:56.452Z,250
2017-08-28T10:11:55.855Z,250
2017-08-28T10:12:56.165Z,250
2017-08-28T10:13:55.534Z,250
2017-08-28T10:14:55.845Z,250
2017-08-28T10:15:55.869Z,250
2017-08-28T10:16:56.172Z,250
2017-08-28T10:17:56.184Z,255
2017-08-28T10:18:55.562Z,250
2017-08-28T10:19:56.193Z,250
2017-08-28T10:20:55.894Z,250
2017-08-28T10:21:55.895Z,250
2017-08-28T10:23:00.862Z,250
2017-08-28T10:23:55.598Z,250
2017-08-28T10:24:56.255Z,250
2017-08-28T10:25:56.231Z,250
2017-08-28T10:26:55.912Z,250
2017-08-28T10:27:56.248Z,250
2017-08-28T10:28:56.247Z,250
2017-08-28T10:29:55.958Z,250
2017-08-28T10:30:55.954Z,250
2017-08-28T10:31:56.257Z,245
2017-08-28T10:32:56.585Z,245
2017-08-28T10:33:56.586Z,250
2017-08-28T10:34:55.662Z,250
2017-08-28T10:35:56.282Z,250
2017-08-28T10:36:55.982Z,250
2017-08-28T10:37:56.601Z,250
2017-08-28T10:38:56.314Z,250
2017-08-28T10:39:56.305Z,250
2017-08-28T10:40:55.682Z,245
2017-08-28T10:41:56.323Z,245
2017-08-28T10:42:56.010Z,245
2017-08-28T10:43:55.696Z,245
2017-08-28T10:44:56.346Z,245
2017-08-28T10:45:56.024Z,245
2017-08-28T10:46:55.721Z,245
2017-08-28T10:47:56.339Z,245
2017-08-28T10:48:56.344Z,245
2017-08-28T10:49:56.055Z,245
2017-08-28T10:50:56.361Z,240
2017-08-28T10:51:56.366Z,245
2017-08-28T10:52:58.829Z,245
2017-08-28T10:53:55.767Z,240
2017-08-28T10:54:56.715Z,240
2017-08-28T10:55:56.390Z,240
2017-08-28T10:56:56.709Z,240
2017-08-28T10:57:56.088Z,245
2017-08-28T10:58:56.396Z,240
2017-08-28T10:59:56.748Z,240
2017-08-28T11:00:56.108Z,240
2017-08-28T11:01:56.108Z,235
2017-08-28T11:02:56.133Z,235
2017-08-28T11:03:56.127Z,230
2017-08-28T11:04:56.457Z,230
2017-08-28T11:05:56.169Z,225
2017-08-28T11:06:56.759Z,230
2017-08-28T11:07:56.762Z,230
2017-08-28T11:08:56.458Z,230
2017-08-28T11:09:56.194Z,230
2017-08-28T11:10:56.471Z,235
2017-08-28T11:11:56.482Z,230
2017-08-28T11:12:55.859Z,230
2017-08-28T11:13:55.861Z,225
2017-08-28T11:14:56.505Z,225
2017-08-28T11:15:56.509Z,225
2017-08-28T11:16:56.514Z,225
2017-08-28T11:17:56.526Z,225
2017-08-28T11:18:56.234Z,225
2017-08-28T11:19:56.839Z,225
2017-08-28T11:20:56.841Z,225
2017-08-28T11:21:56.237Z,225
2017-08-28T11:22:56.238Z,225
2017-08-28T11:23:56.833Z,225
2017-08-28T11:24:56.872Z,230
2017-08-28T11:25:55.945Z,230
2017-08-28T11:26:56.262Z,230
2017-08-28T11:27:56.585Z,225
2017-08-28T11:28:56.277Z,225
2017-08-28T11:29:56.583Z,230
2017-08-28T11:30:56.581Z,235
2017-08-28T11:31:56.289Z,235
2017-08-28T11:32:56.289Z,240
2017-08-28T11:33:56.653Z,240
2017-08-28T11:34:56.338Z,240
2017-08-28T11:35:56.335Z,230
2017-08-28T11:36:56.631Z,225
2017-08-28T11:37:56.341Z,220
2017-08-28T11:38:57.441Z,220
2017-08-28T11:39:56.959Z,220
2017-08-28T11:40:56.653Z,220
2017-08-28T11:41:56.972Z,220
2017-08-28T11:42:56.028Z,220
2017-08-28T11:43:56.401Z,220
2017-08-28T11:44:56.704Z,215
2017-08-28T11:45:56.377Z,220
2017-08-28T11:46:56.679Z,215
2017-08-28T11:47:56.401Z,215
2017-08-28T11:48:56.997Z,210
2017-08-28T11:49:56.721Z,205
2017-08-28T11:50:56.695Z,165
2017-08-28T11:51:56.724Z,165
2017-08-28T11:52:57.039Z,165
2017-08-28T11:53:59.328Z,165
2017-08-28T11:54:56.464Z,190
2017-08-28T11:55:56.467Z,205
2017-08-28T11:56:56.419Z,210
2017-08-28T11:57:57.071Z,200
2017-08-28T11:58:55.839Z,210
2017-08-28T11:59:56.484Z,210
2017-08-28T12:00:56.767Z,210
2017-08-28T12:01:56.465Z,210
2017-08-28T12:02:56.157Z,210
2017-08-28T12:03:56.153Z,205
2017-08-28T12:04:56.185Z,200
2017-08-28T12:05:56.484Z,175
2017-08-28T12:06:56.796Z,200
2017-08-28T12:07:57.109Z,205
2017-08-28T12:08:56.276Z,200
2017-08-28T12:09:57.139Z,200
2017-08-28T12:10:55.884Z,200
2017-08-28T12:11:57.125Z,200
2017-08-28T12:12:57.135Z,200
2017-08-28T12:13:57.159Z,200
2017-08-28T12:14:56.233Z,195
2017-08-28T12:15:57.183Z,200
2017-08-28T12:16:56.561Z,205
2017-08-28T12:17:56.261Z,205
2017-08-28T12:18:57.655Z,205
2017-08-28T12:19:56.247Z,200
2017-08-28T12:20:56.592Z,200
2017-08-28T12:21:56.882Z,200
2017-08-28T12:22:55.952Z,200
2017-08-28T12:24:01.603Z,200
2017-08-28T12:24:56.902Z,200
2017-08-28T12:25:57.222Z,200
2017-08-28T12:26:56.920Z,200
2017-08-28T12:27:56.328Z,200
2017-08-28T12:28:56.625Z,200
2017-08-28T12:29:56.336Z,205
2017-08-28T12:30:56.939Z,205
2017-08-28T12:31:56.393Z,205
2017-08-28T12:32:56.354Z,200
2017-08-28T12:33:56.959Z,200
2017-08-28T12:34:56.682Z,200
2017-08-28T12:35:56.353Z,200
2017-08-28T12:36:56.961Z,200
2017-08-28T12:37:56.978Z,200
2017-08-28T12:38:56.395Z,195
2017-08-28T12:39:56.396Z,195
2017-08-28T12:40:56.989Z,195
2017-08-28T12:41:56.987Z,195
2017-08-28T12:42:56.403Z,195
2017-08-28T12:43:56.698Z,190
2017-08-28T12:44:56.723Z,190
2017-08-28T12:45:56.096Z,190
2017-08-28T12:46:56.743Z,195
2017-08-28T12:47:57.028Z,195
2017-08-28T12:48:56.743Z,190
2017-08-28T12:49:57.362Z,190
2017-08-28T12:50:56.428Z,190
2017-08-28T12:51:56.452Z,190
2017-08-28T12:52:56.440Z,190
2017-08-28T12:53:57.431Z,190
2017-08-28T12:54:57.077Z,190
2017-08-28T12:55:57.079Z,190
2017-08-28T12:56:56.480Z,190
2017-08-28T12:57:57.085Z,190
2017-08-28T12:58:57.093Z,190
2017-08-28T12:59:56.808Z,195
2017-08-28T13:00:57.100Z,195
2017-08-28T13:01:57.105Z,195
2017-08-28T13:02:57.422Z,195
2017-08-28T13:03:56.812Z,195
2017-08-28T13:04:56.823Z,190
2017-08-28T13:05:56.530Z,190
2017-08-28T13:06:56.828Z,195
2017-08-28T13:07:57.452Z,195
2017-08-28T13:08:57.455Z,195
2017-08-28T13:09:57.979Z,195
2017-08-28T13:10:57.160Z,190
2017-08-28T13:11:57.485Z,190
2017-08-28T13:12:57.175Z,190
2017-08-28T13:13:57.498Z,195
2017-08-28T13:14:56.572Z,195
2017-08-28T13:15:57.509Z,190
2017-08-28T13:16:57.547Z,195
2017-08-28T13:17:57.208Z,190
2017-08-28T13:18:56.897Z,185
2017-08-28T13:19:56.939Z,185
2017-08-28T13:20:57.244Z,185
2017-08-28T13:21:57.558Z,185
2017-08-28T13:22:56.939Z,185
2017-08-28T13:23:57.555Z,185
2017-08-28T13:24:59.084Z,185
2017-08-28T13:25:56.994Z,185
2017-08-28T13:26:57.315Z,185
2017-08-28T13:27:57.261Z,185
2017-08-28T13:28:56.954Z,190
2017-08-28T13:29:57.603Z,190
2017-08-28T13:30:56.997Z,190
2017-08-28T13:31:57.612Z,190
2017-08-28T13:32:56.988Z,185
2017-08-28T13:33:57.302Z,185
2017-08-28T13:34:57.652Z,185
2017-08-28T13:35:56.716Z,185
2017-08-28T13:36:57.316Z,185
2017-08-28T13:37:57.365Z,185
2017-08-28T13:38:56.707Z,185
2017-08-28T13:39:57.021Z,185
2017-08-28T13:40:57.056Z,185
2017-08-28T13:41:57.661Z,185
2017-08-28T13:42:57.699Z,185
2017-08-28T13:43:57.367Z,185
2017-08-28T13:44:56.473Z,185
2017-08-28T13:45:56.752Z,185
2017-08-28T13:46:57.386Z,185
2017-08-28T13:47:57.069Z,185
2017-08-28T13:48:57.110Z,180
2017-08-28T13:49:57.193Z,185
2017-08-28T13:50:57.394Z,185
2017-08-28T13:51:57.413Z,185
2017-08-28T13:52:57.515Z,185
2017-08-28T13:53:57.109Z,180
2017-08-28T13:54:59.414Z,180
2017-08-28T13:55:57.477Z,180
2017-08-28T13:56:57.134Z,180
2017-08-28T13:57:57.545Z,180
2017-08-28T13:58:57.156Z,180
2017-08-28T13:59:58.004Z,180
2017-08-28T14:00:56.840Z,180
2017-08-28T14:01:57.488Z,180
2017-08-28T14:02:57.499Z,180
2017-08-28T14:03:57.189Z,180
2017-08-28T14:04:57.176Z,180
2017-08-28T14:05:57.188Z,180
2017-08-28T14:06:57.191Z,180
2017-08-28T14:07:57.834Z,180